createdAt,value
2018-04-17T00:00:16.779Z,1012.37
2018-04-17T00:00:57.179Z,1012.32
2018-04-17T00:01:37.563Z,1012.37
2018-04-17T00:02:17.998Z,1012.35
2018-04-17T00:02:58.367Z,1012.36
2018-04-17T00:03:38.770Z,1012.36
2018-04-17T00:04:19.174Z,1012.42
2018-04-17T00:04:59.537Z,1012.37
2018-04-17T00:05:39.952Z,1012.33
2018-04-17T00:06:20.342Z,1012.41
2018-04-17T00:07:00.733Z,1012.39
2018-04-17T00:07:41.109Z,1012.38
2018-04-17T00:08:21.503Z,1012.37
2018-04-17T00:09:01.889Z,1012.41
2018-04-17T00:09:42.291Z,1012.38
2018-04-17T00:10:22.674Z,1012.38
2018-04-17T00:11:03.103Z,1012.41
2018-04-17T00:11:43.457Z,1012.37
2018-04-17T00:12:23.868Z,1012.38
2018-04-17T00:13:04.247Z,1012.38
2018-04-17T00:13:44.645Z,1012.36
2018-04-17T00:14:25.045Z,1012.34
2018-04-17T00:15:05.436Z,1012.31
2018-04-17T00:15:45.851Z,1012.36
2018-04-17T00:16:26.194Z,1012.35
2018-04-17T00:17:06.577Z,1012.33
2018-04-17T00:17:46.949Z,1012.34
2018-04-17T00:18:27.345Z,1012.33
2018-04-17T00:19:07.738Z,1012.31
2018-04-17T00:19:48.126Z,1012.35
2018-04-17T00:20:28.515Z,1012.34
2018-04-17T00:21:08.925Z,1012.36
2018-04-17T00:21:49.314Z,1012.33
2018-04-17T00:22:29.710Z,1012.36
2018-04-17T00:23:10.120Z,1012.38
2018-04-17T00:23:50.496Z,1012.34
2018-04-17T00:24:30.926Z,1012.37
2018-04-17T00:25:11.308Z,1012.37
2018-04-17T00:25:51.710Z,1012.39
2018-04-17T00:26:32.092Z,1012.39
2018-04-17T00:27:12.482Z,1012.38
2018-04-17T00:27:52.887Z,1012.39
2018-04-17T00:28:33.314Z,1012.38
2018-04-17T00:29:13.724Z,1012.4
2018-04-17T00:29:54.151Z,1012.4
2018-04-17T00:30:34.563Z,1012.41
2018-04-17T00:31:14.985Z,1012.37
2018-04-17T00:31:55.403Z,1012.46
2018-04-17T00:32:35.830Z,1012.47
2018-04-17T00:33:16.247Z,1012.49
2018-04-17T00:33:56.637Z,1012.46
2018-04-17T00:34:37.066Z,1012.51
2018-04-17T00:35:17.481Z,1012.5
2018-04-17T00:35:57.872Z,1012.48
2018-04-17T00:36:38.314Z,1012.49
2018-04-17T00:37:18.742Z,1012.51
2018-04-17T00:37:59.153Z,1012.46
2018-04-17T00:38:39.556Z,1012.5
2018-04-17T00:39:19.967Z,1012.51
2018-04-17T00:40:00.335Z,1012.5
2018-04-17T00:40:40.718Z,1012.52
2018-04-17T00:41:21.113Z,1012.53
2018-04-17T00:42:01.532Z,1012.51
2018-04-17T00:42:41.903Z,1012.52
2018-04-17T00:43:22.342Z,1012.51
2018-04-17T00:44:02.720Z,1012.51
2018-04-17T00:44:43.121Z,1012.53
2018-04-17T00:45:23.495Z,1012.51
2018-04-17T00:46:03.905Z,1012.49
2018-04-17T00:46:44.260Z,1012.5
2018-04-17T00:47:24.660Z,1012.48
2018-04-17T00:48:05.012Z,1012.52
2018-04-17T00:48:45.432Z,1012.51
2018-04-17T00:49:25.821Z,1012.5
2018-04-17T00:50:06.203Z,1012.47
2018-04-17T00:50:46.582Z,1012.51
2018-04-17T00:51:26.945Z,1012.54
2018-04-17T00:52:07.333Z,1012.51
2018-04-17T00:52:47.738Z,1012.53
2018-04-17T00:53:28.103Z,1012.52
2018-04-17T00:54:08.515Z,1012.53
2018-04-17T00:54:48.883Z,1012.56
2018-04-17T00:55:29.270Z,1012.54
2018-04-17T00:56:09.665Z,1012.57
2018-04-17T00:56:50.083Z,1012.52
2018-04-17T00:57:30.462Z,1012.55
2018-04-17T00:58:10.864Z,1012.55
2018-04-17T00:58:51.241Z,1012.51
2018-04-17T00:59:31.653Z,1012.55
2018-04-17T01:00:12.050Z,1012.55
2018-04-17T01:00:52.473Z,1012.55
2018-04-17T01:01:32.838Z,1012.59
2018-04-17T01:02:13.280Z,1012.59
2018-04-17T01:02:53.682Z,1012.59
2018-04-17T01:03:34.067Z,1012.56
2018-04-17T01:04:14.488Z,1012.58
2018-04-17T01:04:54.853Z,1012.62
2018-04-17T01:05:35.247Z,1012.61
2018-04-17T01:06:15.639Z,1012.61
2018-04-17T01:06:56.057Z,1012.59
2018-04-17T01:07:36.434Z,1012.64
2018-04-17T01:08:16.849Z,1012.65
2018-04-17T01:08:57.248Z,1012.64
2018-04-17T01:09:37.619Z,1012.64
2018-04-17T01:10:18.013Z,1012.64
2018-04-17T01:10:58.406Z,1012.63
2018-04-17T01:11:38.828Z,1012.65
2018-04-17T01:12:19.196Z,1012.66
2018-04-17T01:12:59.579Z,1012.68
2018-04-17T01:13:39.989Z,1012.64
2018-04-17T01:14:20.389Z,1012.68
2018-04-17T01:15:00.758Z,1012.69
2018-04-17T01:15:41.188Z,1012.67
2018-04-17T01:16:21.593Z,1012.71
2018-04-17T01:17:02.016Z,1012.7
2018-04-17T01:17:42.438Z,1012.73
2018-04-17T01:18:22.862Z,1012.72
2018-04-17T01:19:03.279Z,1012.71
2018-04-17T01:19:43.702Z,1012.74
2018-04-17T01:20:24.079Z,1012.71
2018-04-17T01:21:04.460Z,1012.69
2018-04-17T01:21:44.866Z,1012.75
2018-04-17T01:22:25.293Z,1012.72
2018-04-17T01:23:05.727Z,1012.75
2018-04-17T01:23:46.153Z,1012.76
2018-04-17T01:24:26.573Z,1012.76
2018-04-17T01:25:06.996Z,1012.76
2018-04-17T01:25:47.402Z,1012.75
2018-04-17T01:26:27.766Z,1012.76
2018-04-17T01:27:08.133Z,1012.76
2018-04-17T01:27:48.547Z,1012.73
2018-04-17T01:28:28.935Z,1012.74
2018-04-17T01:30:21.282Z,1012.74
2018-04-17T01:31:01.708Z,1012.8
2018-04-17T01:31:42.130Z,1012.79
2018-04-17T01:32:22.549Z,1012.81
2018-04-17T01:33:02.970Z,1012.8
2018-04-17T01:33:43.396Z,1012.81
2018-04-17T01:34:23.822Z,1012.82
2018-04-17T01:35:04.241Z,1012.84
2018-04-17T01:35:44.633Z,1012.83
2018-04-17T01:36:25.052Z,1012.82
2018-04-17T01:37:05.456Z,1012.85
2018-04-17T01:37:45.879Z,1012.84
2018-04-17T01:38:26.265Z,1012.84
2018-04-17T01:39:06.659Z,1012.86
2018-04-17T01:39:47.044Z,1012.84
2018-04-17T01:40:27.471Z,1012.86
2018-04-17T01:41:07.879Z,1012.89
2018-04-17T01:41:48.288Z,1012.9
2018-04-17T01:42:28.661Z,1012.88
2018-04-17T01:43:09.073Z,1012.87
2018-04-17T01:43:49.448Z,1012.88
2018-04-17T01:44:29.856Z,1012.93
2018-04-17T01:45:10.227Z,1012.87
2018-04-17T01:45:50.605Z,1012.92
2018-04-17T01:46:31.041Z,1012.88
2018-04-17T01:47:11.416Z,1012.9
2018-04-17T01:47:51.815Z,1012.91
2018-04-17T01:48:32.182Z,1012.93
2018-04-17T01:49:12.567Z,1012.94
2018-04-17T01:49:52.958Z,1012.95
2018-04-17T01:51:45.303Z,1013.03
2018-04-17T01:52:25.733Z,1012.99
2018-04-17T01:53:06.160Z,1013.07
2018-04-17T01:53:46.578Z,1013.04
2018-04-17T01:54:27.002Z,1013.06
2018-04-17T01:55:07.437Z,1013.11
2018-04-17T01:55:47.857Z,1013.09
2018-04-17T01:56:28.278Z,1013.12
2018-04-17T01:57:08.665Z,1013.11
2018-04-17T01:57:49.049Z,1013.11
2018-04-17T01:58:29.471Z,1013.09
2018-04-17T01:59:09.871Z,1013.11
2018-04-17T01:59:50.299Z,1013.09
2018-04-17T02:00:30.633Z,1013.11
2018-04-17T02:01:11.056Z,1013.1
2018-04-17T02:01:51.456Z,1013.14
2018-04-17T02:02:31.812Z,1013.09
2018-04-17T02:03:12.215Z,1013.13
2018-04-17T02:03:52.583Z,1013.11
2018-04-17T02:04:33.001Z,1013.11
2018-04-17T02:05:13.400Z,1013.09
2018-04-17T02:05:53.810Z,1013.12
2018-04-17T02:06:34.241Z,1013.09
2018-04-17T02:07:14.655Z,1013.11
2018-04-17T02:07:55.061Z,1013.11
2018-04-17T02:08:35.434Z,1013.08
2018-04-17T02:09:15.845Z,1013.11
2018-04-17T02:09:56.257Z,1013.15
2018-04-17T02:10:36.677Z,1013.13
2018-04-17T02:11:17.066Z,1013.15
2018-04-17T02:11:57.425Z,1013.13
2018-04-17T02:12:37.832Z,1013.12
2018-04-17T02:13:18.209Z,1013.12
2018-04-17T02:13:58.620Z,1013.15
2018-04-17T02:14:39.046Z,1013.14
2018-04-17T02:15:19.493Z,1013.17
2018-04-17T02:15:59.871Z,1013.15
2018-04-17T02:16:40.293Z,1013.14
2018-04-17T02:17:20.696Z,1013.15
2018-04-17T02:18:01.094Z,1013.17
2018-04-17T02:18:41.504Z,1013.14
2018-04-17T02:19:21.931Z,1013.19
2018-04-17T02:20:02.331Z,1013.18
2018-04-17T02:20:42.737Z,1013.16
2018-04-17T02:21:23.117Z,1013.19
2018-04-17T02:22:03.551Z,1013.2
2018-04-17T02:22:43.965Z,1013.22
2018-04-17T02:23:24.347Z,1013.22
2018-04-17T02:24:04.731Z,1013.25
2018-04-17T02:24:45.163Z,1013.24
2018-04-17T02:25:25.530Z,1013.23
2018-04-17T02:26:05.905Z,1013.23
2018-04-17T02:26:46.303Z,1013.21
2018-04-17T02:27:26.682Z,1013.26
2018-04-17T02:28:07.067Z,1013.27
2018-04-17T02:28:47.454Z,1013.25
2018-04-17T02:29:27.845Z,1013.28
2018-04-17T02:30:08.235Z,1013.26
2018-04-17T02:30:48.630Z,1013.26
2018-04-17T02:31:29.001Z,1013.26
2018-04-17T02:32:09.412Z,1013.27
2018-04-17T02:32:49.789Z,1013.27
2018-04-17T02:33:30.181Z,1013.25
2018-04-17T02:34:10.568Z,1013.3
2018-04-17T02:34:50.963Z,1013.27
2018-04-17T02:35:31.349Z,1013.28
2018-04-17T02:36:11.744Z,1013.28
2018-04-17T02:36:52.145Z,1013.29
2018-04-17T02:37:32.557Z,1013.31
2018-04-17T02:38:12.909Z,1013.27
2018-04-17T02:38:53.314Z,1013.29
2018-04-17T02:39:33.687Z,1013.3
2018-04-17T02:40:14.116Z,1013.29
2018-04-17T02:40:54.509Z,1013.29
2018-04-17T02:41:34.890Z,1013.27
2018-04-17T02:42:15.253Z,1013.25
2018-04-17T02:42:55.650Z,1013.3
2018-04-17T02:43:36.048Z,1013.29
2018-04-17T02:44:16.440Z,1013.29
2018-04-17T02:44:56.864Z,1013.31
2018-04-17T02:45:37.229Z,1013.31
2018-04-17T02:46:17.654Z,1013.28
2018-04-17T02:46:58.064Z,1013.31
2018-04-17T02:47:38.476Z,1013.32
2018-04-17T02:48:18.874Z,1013.32
2018-04-17T02:48:59.282Z,1013.38
2018-04-17T02:49:39.665Z,1013.38
2018-04-17T02:50:20.077Z,1013.32
2018-04-17T02:51:00.460Z,1013.34
2018-04-17T02:51:40.868Z,1013.36
2018-04-17T02:52:21.259Z,1013.37
2018-04-17T02:53:01.667Z,1013.36
2018-04-17T02:53:42.096Z,1013.39
2018-04-17T02:54:22.523Z,1013.34
2018-04-17T02:55:02.959Z,1013.33
2018-04-17T02:55:43.336Z,1013.37
2018-04-17T02:56:23.791Z,1013.37
2018-04-17T02:57:04.192Z,1013.37
2018-04-17T02:57:44.597Z,1013.39
2018-04-17T02:58:24.997Z,1013.39
2018-04-17T02:59:05.412Z,1013.39
2018-04-17T02:59:45.827Z,1013.41
2018-04-17T03:00:26.259Z,1013.4
2018-04-17T03:01:06.695Z,1013.41
2018-04-17T03:01:47.090Z,1013.4
2018-04-17T03:02:27.468Z,1013.43
2018-04-17T03:03:07.899Z,1013.41
2018-04-17T03:03:48.271Z,1013.41
2018-04-17T03:04:28.646Z,1013.36
2018-04-17T03:05:09.077Z,1013.42
2018-04-17T03:05:49.483Z,1013.43
2018-04-17T03:06:29.906Z,1013.38
2018-04-17T03:07:10.327Z,1013.35
2018-04-17T03:07:50.685Z,1013.35
2018-04-17T03:08:31.109Z,1013.38
2018-04-17T03:09:11.551Z,1013.38
2018-04-17T03:09:51.967Z,1013.34
2018-04-17T03:10:32.371Z,1013.37
2018-04-17T03:11:12.785Z,1013.4
2018-04-17T03:11:53.222Z,1013.4
2018-04-17T03:12:33.648Z,1013.4
2018-04-17T03:13:14.046Z,1013.35
2018-04-17T03:13:54.435Z,1013.36
2018-04-17T03:14:34.828Z,1013.38
2018-04-17T03:15:15.202Z,1013.36
2018-04-17T03:15:55.611Z,1013.37
2018-04-17T03:16:35.988Z,1013.39
2018-04-17T03:17:16.393Z,1013.38
2018-04-17T03:17:56.798Z,1013.41
2018-04-17T03:18:37.164Z,1013.41
2018-04-17T03:19:17.613Z,1013.4
2018-04-17T03:19:57.998Z,1013.4
2018-04-17T03:20:38.383Z,1013.37
2018-04-17T03:21:18.769Z,1013.35
2018-04-17T03:21:59.157Z,1013.4
2018-04-17T03:22:39.519Z,1013.41
2018-04-17T03:23:19.911Z,1013.41
2018-04-17T03:24:00.298Z,1013.42
2018-04-17T03:24:40.720Z,1013.41
2018-04-17T03:25:21.128Z,1013.41
2018-04-17T03:26:01.562Z,1013.41
2018-04-17T03:26:41.945Z,1013.41
2018-04-17T03:27:22.343Z,1013.42
2018-04-17T03:28:02.738Z,1013.4
2018-04-17T03:28:43.149Z,1013.38
2018-04-17T03:29:23.538Z,1013.39
2018-04-17T03:30:03.933Z,1013.35
2018-04-17T03:30:44.315Z,1013.38
2018-04-17T03:31:24.704Z,1013.37
2018-04-17T03:32:05.106Z,1013.32
2018-04-17T03:32:45.544Z,1013.37
2018-04-17T03:33:25.933Z,1013.4
2018-04-17T03:34:06.331Z,1013.36
2018-04-17T03:34:46.719Z,1013.37
2018-04-17T03:35:27.136Z,1013.36
2018-04-17T03:36:07.583Z,1013.35
2018-04-17T03:36:47.933Z,1013.36
2018-04-17T03:37:28.325Z,1013.36
2018-04-17T03:38:08.733Z,1013.33
2018-04-17T03:38:49.135Z,1013.32
2018-04-17T03:39:29.534Z,1013.35
2018-04-17T03:40:09.924Z,1013.31
2018-04-17T03:40:50.320Z,1013.31
2018-04-17T03:41:30.735Z,1013.36
2018-04-17T03:42:11.138Z,1013.37
2018-04-17T03:42:51.506Z,1013.35
2018-04-17T03:43:31.902Z,1013.35
2018-04-17T03:44:12.286Z,1013.37
2018-04-17T03:44:52.699Z,1013.33
2018-04-17T03:45:33.109Z,1013.34
2018-04-17T03:46:13.505Z,1013.34
2018-04-17T03:46:53.937Z,1013.35
2018-04-17T03:47:34.272Z,1013.33
2018-04-17T03:48:14.691Z,1013.34
2018-04-17T03:48:55.112Z,1013.34
2018-04-17T03:49:35.537Z,1013.36
2018-04-17T03:50:15.894Z,1013.35
2018-04-17T03:50:56.310Z,1013.35
2018-04-17T03:51:36.717Z,1013.38
2018-04-17T03:52:17.123Z,1013.35
2018-04-17T03:52:57.525Z,1013.34
2018-04-17T03:53:37.925Z,1013.37
2018-04-17T03:54:18.334Z,1013.34
2018-04-17T03:54:58.724Z,1013.35
2018-04-17T03:55:39.141Z,1013.36
2018-04-17T03:56:19.574Z,1013.39
2018-04-17T03:56:59.929Z,1013.39
2018-04-17T03:57:40.343Z,1013.36
2018-04-17T03:59:53.133Z,1013.42
2018-04-17T04:00:33.513Z,1013.44
2018-04-17T04:01:13.831Z,1013.43
2018-04-17T04:45:48.594Z,1013.56
2018-04-17T04:46:28.943Z,1013.57
2018-04-17T04:47:09.335Z,1013.56
2018-04-17T04:47:49.846Z,1013.59
2018-04-17T04:48:30.222Z,1013.61
2018-04-17T04:49:10.616Z,1013.67
2018-04-17T04:49:51.032Z,1013.66
2018-04-17T04:50:31.457Z,1013.64
2018-04-17T04:51:11.887Z,1013.67
2018-04-17T04:51:52.320Z,1013.65
2018-04-17T04:52:32.716Z,1013.69
2018-04-17T04:53:13.131Z,1013.72
2018-04-17T04:53:53.528Z,1013.77
2018-04-17T04:54:33.967Z,1013.82
2018-04-17T04:55:14.389Z,1013.76
2018-04-17T04:55:54.746Z,1013.79
2018-04-17T04:56:35.187Z,1013.79
2018-04-17T04:57:15.598Z,1013.81
2018-04-17T04:57:56.002Z,1013.84
2018-04-17T04:58:36.404Z,1013.82
2018-04-17T04:59:16.860Z,1013.86
2018-04-17T04:59:57.275Z,1013.88
2018-04-17T05:00:37.679Z,1013.9
2018-04-17T05:01:18.097Z,1013.89
2018-04-17T05:01:58.476Z,1013.94
2018-04-17T05:02:38.972Z,1013.92
2018-04-17T05:03:19.410Z,1013.9
2018-04-17T05:03:59.831Z,1013.9
2018-04-17T05:04:40.358Z,1013.88
2018-04-17T05:05:20.777Z,1013.88
2018-04-17T05:06:01.305Z,1013.82
2018-04-17T05:06:41.727Z,1013.86
2018-04-17T05:07:22.437Z,1013.83
2018-04-17T05:08:02.941Z,1013.87
2018-04-17T05:08:43.486Z,1013.91
2018-04-17T05:09:37.317Z,1013.91
2018-04-17T05:10:17.598Z,1013.94
2018-04-17T05:10:57.994Z,1013.91
2018-04-17T05:11:38.412Z,1013.9
2018-04-17T05:12:18.869Z,1013.96
2018-04-17T05:12:59.207Z,1013.96
2018-04-17T05:13:39.654Z,1013.98
2018-04-17T05:14:20.375Z,1014.01
2018-04-17T05:15:00.850Z,1014.07
2018-04-17T05:15:41.283Z,1014.1
2018-04-17T05:16:21.701Z,1014.12
2018-04-17T05:17:02.125Z,1014.12
2018-04-17T05:17:42.550Z,1014.13
2018-04-17T05:18:23.300Z,1014.17
2018-04-17T05:19:03.725Z,1014.17
2018-04-17T05:19:44.134Z,1014.19
2018-04-17T05:20:24.565Z,1014.21
2018-04-17T05:21:05.036Z,1014.21
2018-04-17T05:21:45.435Z,1014.24
2018-04-17T05:22:25.856Z,1014.28
2018-04-17T05:23:06.231Z,1014.27
2018-04-17T05:23:46.620Z,1014.29
2018-04-17T05:24:27.036Z,1014.3
2018-04-17T05:25:07.422Z,1014.33
2018-04-17T05:28:59.124Z,1014.48
2018-04-17T05:29:39.513Z,1014.5
2018-04-17T05:30:19.894Z,1014.48
2018-04-17T05:31:00.307Z,1014.48
2018-04-17T05:31:40.677Z,1014.52
2018-04-17T05:32:21.136Z,1014.52
2018-04-17T05:33:01.608Z,1014.52
2018-04-17T05:35:00.907Z,1014.52
2018-04-17T05:35:41.333Z,1014.61
2018-04-17T05:36:21.741Z,1014.65
2018-04-17T05:37:02.123Z,1014.71
2018-04-17T05:37:42.516Z,1014.7
2018-04-17T05:38:22.922Z,1014.72
2018-04-17T05:39:03.327Z,1014.74
2018-04-17T05:39:43.728Z,1014.7
2018-04-17T05:40:24.191Z,1014.78
2018-04-17T05:41:04.553Z,1014.84
2018-04-17T05:41:44.958Z,1014.81
2018-04-17T05:42:25.349Z,1014.84
2018-04-17T05:43:05.766Z,1014.89
2018-04-17T05:43:46.128Z,1014.93
2018-04-17T05:44:26.515Z,1014.89
2018-04-17T05:45:07.092Z,1014.91
2018-04-17T05:45:47.558Z,1014.96
2018-04-17T05:46:28.183Z,1014.97
2018-04-17T05:47:08.674Z,1014.98
2018-04-17T05:47:49.052Z,1014.98
2018-04-17T05:48:29.502Z,1014.99
2018-04-17T05:49:09.901Z,1014.98
2018-04-17T05:49:50.312Z,1015.04
2018-04-17T05:50:30.761Z,1015.05
2018-04-17T05:51:11.177Z,1015.06
2018-04-17T05:51:51.621Z,1015.12
2018-04-17T05:52:32.290Z,1015.11
2018-04-17T05:53:12.736Z,1015.12
2018-04-17T05:53:54.036Z,1015.14
2018-04-17T05:54:33.807Z,1015.12
2018-04-17T05:55:14.282Z,1015.12
2018-04-17T05:55:55.255Z,1015.15
2018-04-17T05:56:36.537Z,1015.22
2018-04-17T05:57:19.522Z,1015.22
2018-04-17T05:58:00.563Z,1015.3
2018-04-17T05:58:41.545Z,1015.3
2018-04-17T05:59:22.548Z,1015.28
2018-04-17T06:00:02.760Z,1015.24
2018-04-17T06:00:44.560Z,1015.27
2018-04-17T06:01:24.402Z,1015.29
2018-04-17T06:02:04.933Z,1015.29
2018-04-17T06:02:45.366Z,1015.33
2018-04-17T06:03:25.869Z,1015.32
2018-04-17T06:04:06.296Z,1015.34
2018-04-17T06:04:46.718Z,1015.34
2018-04-17T06:05:27.119Z,1015.37
2018-04-17T06:06:07.620Z,1015.38
2018-04-17T06:06:48.129Z,1015.37
2018-04-17T06:07:28.490Z,1015.39
2018-04-17T06:08:08.930Z,1015.36
2018-04-17T06:08:49.316Z,1015.35
2018-04-17T06:09:29.847Z,1015.39
2018-04-17T06:10:10.256Z,1015.36
2018-04-17T06:10:50.804Z,1015.38
2018-04-17T06:11:31.158Z,1015.4
2018-04-17T06:12:11.594Z,1015.41
2018-04-17T06:14:39.891Z,1015.47
2018-04-17T06:15:19.786Z,1015.49
2018-04-17T06:16:00.208Z,1015.54
2018-04-17T06:16:40.632Z,1015.51
2018-04-17T06:17:20.999Z,1015.5
2018-04-17T06:18:01.428Z,1015.51
2018-04-17T06:18:41.909Z,1015.51
2018-04-17T06:19:22.524Z,1015.54
2018-04-17T06:20:02.975Z,1015.51
2018-04-17T06:20:43.300Z,1015.52
2018-04-17T06:21:23.694Z,1015.51
2018-04-17T06:22:04.224Z,1015.53
2018-04-17T06:22:45.384Z,1015.56
2018-04-17T06:23:26.085Z,1015.5
2018-04-17T06:24:06.042Z,1015.53
2018-04-17T06:24:46.406Z,1015.5
2018-04-17T06:25:33.565Z,1015.5
2018-04-17T06:26:14.773Z,1015.48
2018-04-17T06:26:55.177Z,1015.48
2018-04-17T06:27:35.657Z,1015.5
2018-04-17T06:28:16.033Z,1015.52
2018-04-17T06:28:56.424Z,1015.51
2018-04-17T06:29:36.844Z,1015.5
2018-04-17T06:30:17.353Z,1015.54
2018-04-17T06:30:57.811Z,1015.56
2018-04-17T06:31:40.998Z,1015.54
2018-04-17T06:32:24.106Z,1015.56
2018-04-17T06:33:05.384Z,1015.57
2018-04-17T06:33:47.980Z,1015.57
2018-04-17T06:34:28.390Z,1015.54
2018-04-17T06:35:08.881Z,1015.55
2018-04-17T06:35:49.194Z,1015.58
2018-04-17T06:36:29.621Z,1015.57
2018-04-17T06:37:10.066Z,1015.57
2018-04-17T06:37:50.599Z,1015.56
2018-04-17T06:38:31.051Z,1015.57
2018-04-17T06:39:11.526Z,1015.59
2018-04-17T06:39:52.007Z,1015.62
2018-04-17T06:40:32.682Z,1015.57
2018-04-17T06:41:13.461Z,1015.54
2018-04-17T06:41:53.811Z,1015.56
2018-04-17T06:42:34.356Z,1015.56
2018-04-17T06:43:14.954Z,1015.57
2018-04-17T06:43:55.440Z,1015.56
2018-04-17T06:44:35.975Z,1015.56
2018-04-17T06:45:16.326Z,1015.59
2018-04-17T06:45:56.786Z,1015.57
2018-04-17T06:46:37.674Z,1015.56
2018-04-17T06:47:18.274Z,1015.56
2018-04-17T06:47:58.958Z,1015.57
2018-04-17T06:48:39.479Z,1015.56
2018-04-17T06:49:20.491Z,1015.55
2018-04-17T06:50:00.860Z,1015.57
2018-04-17T06:50:41.248Z,1015.58
2018-04-17T06:51:21.708Z,1015.6
2018-04-17T06:52:02.039Z,1015.63
2018-04-17T06:52:42.471Z,1015.61
2018-04-17T06:53:22.900Z,1015.63
2018-04-17T06:54:03.352Z,1015.63
2018-04-17T06:54:44.753Z,1015.62
2018-04-17T06:55:25.558Z,1015.66
2018-04-17T06:56:06.927Z,1015.66
2018-04-17T06:56:46.869Z,1015.67
2018-04-17T06:57:27.404Z,1015.65
2018-04-17T06:58:08.364Z,1015.68
2018-04-17T06:58:49.910Z,1015.69
2018-04-17T06:59:30.375Z,1015.66
2018-04-17T07:00:10.932Z,1015.66
2018-04-17T07:00:51.608Z,1015.68
2018-04-17T07:01:32.263Z,1015.61
2018-04-17T07:02:12.912Z,1015.67
2018-04-17T07:02:53.530Z,1015.68
2018-04-17T07:03:34.551Z,1015.69
2018-04-17T07:04:15.208Z,1015.71
2018-04-17T07:04:55.483Z,1015.73
2018-04-17T07:05:35.870Z,1015.72
2018-04-17T07:06:16.320Z,1015.75
2018-04-17T07:06:56.846Z,1015.75
2018-04-17T07:07:37.257Z,1015.75
2018-04-17T07:08:17.815Z,1015.77
2018-04-17T07:08:58.323Z,1015.78
2018-04-17T07:09:38.956Z,1015.77
2018-04-17T07:10:19.528Z,1015.78
2018-04-17T07:11:01.058Z,1015.79
2018-04-17T07:11:41.930Z,1015.78
2018-04-17T07:12:22.417Z,1015.81
2018-04-17T07:13:02.350Z,1015.81
2018-04-17T07:13:42.844Z,1015.86
2018-04-17T07:14:23.373Z,1015.86
2018-04-17T07:15:03.894Z,1015.86
2018-04-17T07:15:44.526Z,1015.9
2018-04-17T07:16:25.247Z,1015.88
2018-04-17T07:17:05.767Z,1015.92
2018-04-17T07:17:46.166Z,1015.86
2018-04-17T07:18:26.722Z,1015.91
2018-04-17T07:19:07.139Z,1015.91
2018-04-17T07:19:47.512Z,1015.9
2018-04-17T07:20:27.969Z,1015.92
2018-04-17T07:21:08.568Z,1015.89
2018-04-17T07:21:49.081Z,1015.9
2018-04-17T07:22:29.534Z,1015.94
2018-04-17T07:23:10.029Z,1015.93
2018-04-17T07:23:50.385Z,1015.96
2018-04-17T07:24:32.825Z,1015.94
2018-04-17T07:25:13.361Z,1015.94
2018-04-17T07:25:53.780Z,1015.93
2018-04-17T07:26:34.372Z,1015.97
2018-04-17T07:27:15.094Z,1015.94
2018-04-17T07:27:56.927Z,1015.92
2018-04-17T07:28:37.511Z,1015.95
2018-04-17T07:29:17.972Z,1015.95
2018-04-17T07:29:58.288Z,1015.95
2018-04-17T07:30:38.677Z,1015.93
2018-04-17T07:31:19.135Z,1015.93
2018-04-17T07:31:59.552Z,1015.95
2018-04-17T07:32:41.699Z,1015.92
2018-04-17T07:33:22.170Z,1015.93
2018-04-17T07:34:02.563Z,1015.92
2018-04-17T07:34:43.079Z,1015.93
2018-04-17T07:35:23.489Z,1015.94
2018-04-17T07:36:03.881Z,1015.96
2018-04-17T07:36:44.381Z,1015.98
2018-04-17T07:37:24.747Z,1015.96
2018-04-17T07:39:52.631Z,1015.98
2018-04-17T07:40:33.180Z,1016.03
2018-04-17T07:41:13.860Z,1016
2018-04-17T07:41:54.131Z,1016
2018-04-17T07:42:35.014Z,1016.05
2018-04-17T07:43:15.293Z,1016.06
2018-04-17T07:43:57.007Z,1016.01
2018-04-17T07:44:37.448Z,1016.03
2018-04-17T07:45:17.963Z,1016.05
2018-04-17T07:45:58.344Z,1016
2018-04-17T07:46:38.848Z,1016.03
2018-04-17T07:47:21.225Z,1016.03
2018-04-17T07:48:01.561Z,1016.08
2018-04-17T07:48:42.195Z,1016.07
2018-04-17T07:49:23.357Z,1016.08
2018-04-17T07:50:04.113Z,1016.09
2018-04-17T07:50:44.469Z,1016.14
2018-04-17T07:51:24.920Z,1016.14
2018-04-17T07:52:05.700Z,1016.15
2018-04-17T07:52:46.142Z,1016.15
2018-04-17T07:53:26.622Z,1016.19
2018-04-17T07:54:07.002Z,1016.17
2018-04-17T07:54:47.458Z,1016.16
2018-04-17T07:55:27.897Z,1016.16
2018-04-17T07:56:08.427Z,1016.13
2018-04-17T07:56:48.917Z,1016.1
2018-04-17T07:57:31.286Z,1016.15
2018-04-17T07:58:13.819Z,1016.16
2018-04-17T07:58:55.696Z,1016.16
2018-04-17T07:59:37.252Z,1016.17
2018-04-17T08:00:18.368Z,1016.14
2018-04-17T08:02:11.528Z,1016.14
2018-04-17T08:02:52.137Z,1016.13
2018-04-17T08:03:32.625Z,1016.14
2018-04-17T08:04:13.608Z,1016.16
2018-04-17T08:04:54.580Z,1016.13
2018-04-17T08:07:40.285Z,1016.17
2018-04-17T08:08:30.116Z,1016.17
2018-04-17T08:09:12.246Z,1016.15
2018-04-17T08:09:52.700Z,1016.16
2018-04-17T08:10:33.106Z,1016.17
2018-04-17T08:11:13.521Z,1016.19
2018-04-17T08:11:54.111Z,1016.2
2018-04-17T08:12:34.548Z,1016.19
2018-04-17T08:13:14.968Z,1016.24
2018-04-17T08:13:55.672Z,1016.26
2018-04-17T08:14:36.083Z,1016.23
2018-04-17T08:15:16.840Z,1016.3
2018-04-17T08:15:57.507Z,1016.29
2018-04-17T08:16:38.026Z,1016.27
2018-04-17T08:17:18.342Z,1016.3
2018-04-17T08:17:59.627Z,1016.31
2018-04-17T08:18:41.296Z,1016.32
2018-04-17T08:19:21.816Z,1016.31
2018-04-17T08:20:03.453Z,1016.37
2018-04-17T08:20:44.480Z,1016.36
2018-04-17T08:21:24.103Z,1016.36
2018-04-17T08:22:05.473Z,1016.38
2018-04-17T08:22:45.315Z,1016.36
2018-04-17T08:23:25.873Z,1016.35
2018-04-17T08:24:07.475Z,1016.39
2018-04-17T08:24:47.650Z,1016.41
2018-04-17T08:25:28.355Z,1016.39
2018-04-17T08:26:09.071Z,1016.38
2018-04-17T08:26:49.828Z,1016.4
2018-04-17T08:27:31.456Z,1016.35
2018-04-17T08:28:11.456Z,1016.37
2018-04-17T08:28:52.913Z,1016.33
2018-04-17T08:29:33.812Z,1016.33
2018-04-17T08:30:14.524Z,1016.37
2018-04-17T08:30:55.267Z,1016.39
2018-04-17T08:31:35.872Z,1016.37
2018-04-17T08:32:16.311Z,1016.4
2018-04-17T08:32:57.679Z,1016.36
2018-04-17T08:33:38.524Z,1016.4
2018-04-17T08:34:19.002Z,1016.38
2018-04-17T08:34:59.488Z,1016.38
2018-04-17T08:35:39.929Z,1016.38
2018-04-17T08:36:20.438Z,1016.38
2018-04-17T08:37:01.200Z,1016.39
2018-04-17T08:39:29.106Z,1016.37
2018-04-17T08:40:09.713Z,1016.36
2018-04-17T08:40:51.198Z,1016.34
2018-04-17T08:41:31.909Z,1016.31
2018-04-17T08:42:12.515Z,1016.28
2018-04-17T08:42:54.595Z,1016.31
2018-04-17T08:43:34.624Z,1016.33
2018-04-17T08:44:15.210Z,1016.26
2018-04-17T08:45:01.234Z,1016.31
2018-04-17T08:45:46.384Z,1016.27
2018-04-17T08:46:27.439Z,1016.24
2018-04-17T08:47:10.112Z,1016.25
2018-04-17T08:47:51.217Z,1016.26
2018-04-17T08:48:32.104Z,1016.23
2018-04-17T08:49:12.926Z,1016.24
2018-04-17T08:49:53.413Z,1016.24
2018-04-17T08:50:33.797Z,1016.26
2018-04-17T08:51:14.268Z,1016.26
2018-04-17T08:51:55.008Z,1016.25
2018-04-17T08:52:35.921Z,1016.2
2018-04-17T08:53:17.764Z,1016.23
2018-04-17T08:53:58.350Z,1016.23
2018-04-17T08:54:39.200Z,1016.22
2018-04-17T08:55:19.788Z,1016.25
2018-04-17T08:56:00.155Z,1016.24
2018-04-17T08:56:40.663Z,1016.23
2018-04-17T08:57:21.005Z,1016.15
2018-04-17T08:58:01.482Z,1016.19
2018-04-17T08:58:41.938Z,1016.22
2018-04-17T08:59:22.362Z,1016.13
2018-04-17T09:00:02.791Z,1016.14
2018-04-17T09:00:43.337Z,1016.09
2018-04-17T09:01:23.773Z,1016.13
2018-04-17T09:02:04.181Z,1016.07
2018-04-17T09:02:44.821Z,1016.1
2018-04-17T09:03:25.250Z,1016.15
2018-04-17T09:04:05.677Z,1016.09
2018-04-17T09:04:46.089Z,1016.11
2018-04-17T09:05:26.563Z,1016.09
2018-04-17T09:06:07.454Z,1016.15
2018-04-17T09:06:47.881Z,1016.13
2018-04-17T09:07:28.296Z,1016.16
2018-04-17T09:08:08.911Z,1016.17
2018-04-17T09:08:50.123Z,1016.2
2018-04-17T09:09:30.932Z,1016.17
2018-04-17T09:10:10.989Z,1016.21
2018-04-17T09:10:51.536Z,1016.19
2018-04-17T09:11:32.026Z,1016.19
2018-04-17T09:12:12.686Z,1016.2
2018-04-17T09:12:54.545Z,1016.16